Rina Amoretti — IBRR — position and weather

sailwx.info

Track history (hours):
 
Tides and Currents Weather Stations Pressure Air Temp Water Temp Dewpoint Dewpoint Depression Visibility Wind Speed Wind Dir Waves Ship Positions

Rina Amoretti

Last reported at 2015-May-05 15:33 UTC. Time now 2015-May-29 10:23 UTC.
Position N 40°29' E 018°31'.
Warning: this ship's position is 23 days out of date.

Length 119 m; draft 7.6 m.

Type: Ship (hazmat cat A). MMSI: 247197000.

Date/timePositionNaut miles runAvg speedWind from/ knotsBaromVisibWave heightAir tempDewpointWater temp
2015-May-05 15:33N 40°29' E 018°31'1313.2
2015-May-05 14:33N 40°16' E 018°35'1312.8
2015-May-05 13:33N 40°03' E 018°36'1513.1
2015-May-05 12:25N 39°49' E 018°31'1112.8
2015-May-05 11:33N 39°40' E 018°23'  
2015-May-02 22:27N 38°11' E 013°54'1112.5
2015-May-02 21:33N 38°11' E 013°40'1211.8
2015-May-02 20:33N 38°06' E 013°26'0 0.3
2015-May-02 19:33N 38°06' E 013°26'0 0.0
2015-May-02 18:33N 38°06' E 013°26'0 0.0
2015-May-02 17:33N 38°06' E 013°26'0 0.0
2015-May-02 16:32N 38°06' E 013°26'0 0.0
2015-May-02 15:32N 38°06' E 013°26'0 0.0
2015-May-02 14:32N 38°06' E 013°26'0 0.0
2015-May-02 13:32N 38°06' E 013°26'0 0.0
2015-May-02 12:32N 38°06' E 013°26'0 0.0
2015-May-02 11:32N 38°06' E 013°26'0 0.0
2015-May-02 10:32N 38°06' E 013°26'0 0.0
2015-May-02 09:32N 38°06' E 013°26'0 0.0
2015-May-02 08:32N 38°06' E 013°26'0 0.0
2015-May-02 07:32N 38°06' E 013°26'0 0.0
2015-May-02 06:32N 38°06' E 013°26'1 1.0
2015-May-02 05:33N 38°06' E 013°27'1 1.0
2015-May-02 04:32N 38°07' E 013°29'0 0.0
2015-May-02 03:32N 38°07' E 013°29'0 0.0
2015-May-02 02:32N 38°07' E 013°28'0 0.0
2015-May-02 01:32N 38°07' E 013°28'0 0.1
2015-May-02 00:32N 38°07' E 013°29'0 0.0
2015-May-01 23:29N 38°07' E 013°29'0 0.1
2015-May-01 22:32N 38°07' E 013°29'0 0.0
2015-May-01 21:32N 38°07' E 013°28'0 0.0
2015-May-01 20:32N 38°07' E 013°28'0 0.0
2015-May-01 19:32N 38°07' E 013°28'0 0.0
2015-May-01 18:32N 38°07' E 013°28'0 0.0
2015-May-01 17:32N 38°07' E 013°28'0 0.1
2015-May-01 16:32N 38°07' E 013°28'0 0.0
2015-May-01 15:29N 38°07' E 013°28'0 0.0
2015-May-01 14:32N 38°07' E 013°28'0 0.0
2015-May-01 13:32N 38°07' E 013°28'0 0.0
2015-May-01 12:31N 38°07' E 013°28'0 0.0
2015-May-01 11:31N 38°07' E 013°28'0 0.0
2015-May-01 10:31N 38°07' E 013°28'0 0.0
2015-May-01 09:31N 38°07' E 013°28'0 0.0
2015-May-01 08:31N 38°07' E 013°28'0 0.1
2015-May-01 07:31N 38°07' E 013°29'0 0.1
2015-May-01 06:28N 38°07' E 013°29'2 1.7
2015-May-01 05:33N 38°08' E 013°30'9 9.4
2015-May-01 04:33N 38°10' E 013°41'1210.8
2015-May-01 03:27N 38°12' E 013°56'  
2015-Apr-27 09:21N 38°10' E 015°36'9 9.0
2015-Apr-27 08:19N 38°20' E 015°37'1013.3
2015-Apr-27 07:33N 38°19' E 015°24'1413.5
2015-Apr-27 06:32N 38°17' E 015°07'1313.2
2015-Apr-27 05:33N 38°16' E 014°50'1513.3
2015-Apr-27 04:27N 38°14' E 014°32'1213.1
2015-Apr-27 03:33N 38°13' E 014°17'1312.8
2015-Apr-27 02:33N 38°12' E 014°00'1312.7
2015-Apr-27 01:33N 38°11' E 013°44'1313.0
2015-Apr-27 00:33N 38°08' E 013°28'3 2.5
2015-Apr-26 23:33N 38°06' E 013°26'0 0.0
2015-Apr-26 22:34N 38°06' E 013°26'0 0.0
2015-Apr-26 21:33N 38°06' E 013°26'0 0.0
2015-Apr-26 20:33N 38°06' E 013°26'0 0.0
2015-Apr-26 19:33N 38°06' E 013°26'0 0.0
2015-Apr-26 18:33N 38°06' E 013°26'0 0.0
2015-Apr-26 17:33N 38°06' E 013°26'0 0.0
2015-Apr-26 16:33N 38°06' E 013°26'0 0.0
2015-Apr-26 15:33N 38°06' E 013°26'0 0.0
2015-Apr-26 14:34N 38°06' E 013°26'0 0.0
2015-Apr-26 13:33N 38°06' E 013°26'0 0.0
2015-Apr-26 12:34N 38°06' E 013°26'0 0.0
2015-Apr-26 11:34N 38°06' E 013°26'0 0.0
2015-Apr-26 10:33N 38°06' E 013°26'0 0.0
2015-Apr-26 09:33N 38°06' E 013°26'0 0.0
2015-Apr-26 08:33N 38°06' E 013°26'0 0.0
2015-Apr-26 07:33N 38°06' E 013°26'1 1.1
2015-Apr-26 06:33N 38°07' E 013°26'0 0.1
2015-Apr-26 05:33N 38°07' E 013°26'0 0.0
2015-Apr-26 04:33N 38°07' E 013°26'0 0.0
2015-Apr-26 03:32N 38°07' E 013°26'0 0.0
2015-Apr-26 02:32N 38°07' E 013°26'0 0.0
2015-Apr-26 01:32N 38°07' E 013°26'0 0.0
2015-Apr-26 00:32N 38°07' E 013°26'0 0.0
2015-Apr-25 23:32N 38°07' E 013°26'0 0.0
2015-Apr-25 22:32N 38°07' E 013°26'0 0.0
2015-Apr-25 21:32N 38°07' E 013°26'0 0.0
2015-Apr-25 20:32N 38°07' E 013°26'0 0.0
2015-Apr-25 19:32N 38°07' E 013°26'0 0.0
2015-Apr-25 18:32N 38°07' E 013°26'0 0.0
2015-Apr-25 17:32N 38°07' E 013°26'0 0.0
2015-Apr-25 16:32N 38°07' E 013°26'  
Track history (hours):
 
Tides and Currents Weather Stations Pressure Air Temp Water Temp Dewpoint Dewpoint Depression Visibility Wind Speed Wind Dir Waves Ship Positions

Rina Amoretti

Last reported at 2015-May-05 15:33 UTC. Time now 2015-May-29 10:23 UTC.
Position N 40°29' E 018°31'.
Warning: this ship's position is 23 days out of date.

Length 119 m; draft 7.6 m.

Type: Ship (hazmat cat A). MMSI: 247197000.

Date/timePositionNaut miles runAvg speedWind from/ knotsBaromVisibWave heightAir tempDewpointWater temp
2015-May-05 15:33N 40°29' E 018°31'1313.2
2015-May-05 14:33N 40°16' E 018°35'1312.8
2015-May-05 13:33N 40°03' E 018°36'1513.1
2015-May-05 12:25N 39°49' E 018°31'1112.8
2015-May-05 11:33N 39°40' E 018°23'  
2015-May-02 22:27N 38°11' E 013°54'1112.5
2015-May-02 21:33N 38°11' E 013°40'1211.8
2015-May-02 20:33N 38°06' E 013°26'0 0.3
2015-May-02 19:33N 38°06' E 013°26'0 0.0
2015-May-02 18:33N 38°06' E 013°26'0 0.0
2015-May-02 17:33N 38°06' E 013°26'0 0.0
2015-May-02 16:32N 38°06' E 013°26'0 0.0
2015-May-02 15:32N 38°06' E 013°26'0 0.0
2015-May-02 14:32N 38°06' E 013°26'0 0.0
2015-May-02 13:32N 38°06' E 013°26'0 0.0
2015-May-02 12:32N 38°06' E 013°26'0 0.0
2015-May-02 11:32N 38°06' E 013°26'0 0.0
2015-May-02 10:32N 38°06' E 013°26'0 0.0
2015-May-02 09:32N 38°06' E 013°26'0 0.0
2015-May-02 08:32N 38°06' E 013°26'0 0.0
2015-May-02 07:32N 38°06' E 013°26'0 0.0
2015-May-02 06:32N 38°06' E 013°26'1 1.0
2015-May-02 05:33N 38°06' E 013°27'1 1.0
2015-May-02 04:32N 38°07' E 013°29'0 0.0
2015-May-02 03:32N 38°07' E 013°29'0 0.0
2015-May-02 02:32N 38°07' E 013°28'0 0.0
2015-May-02 01:32N 38°07' E 013°28'0 0.1
2015-May-02 00:32N 38°07' E 013°29'0 0.0
2015-May-01 23:29N 38°07' E 013°29'0 0.1
2015-May-01 22:32N 38°07' E 013°29'0 0.0
2015-May-01 21:32N 38°07' E 013°28'0 0.0
2015-May-01 20:32N 38°07' E 013°28'0 0.0
2015-May-01 19:32N 38°07' E 013°28'0 0.0
2015-May-01 18:32N 38°07' E 013°28'0 0.0
2015-May-01 17:32N 38°07' E 013°28'0 0.1
2015-May-01 16:32N 38°07' E 013°28'0 0.0
2015-May-01 15:29N 38°07' E 013°28'0 0.0
2015-May-01 14:32N 38°07' E 013°28'0 0.0
2015-May-01 13:32N 38°07' E 013°28'0 0.0
2015-May-01 12:31N 38°07' E 013°28'0 0.0
2015-May-01 11:31N 38°07' E 013°28'0 0.0
2015-May-01 10:31N 38°07' E 013°28'0 0.0
2015-May-01 09:31N 38°07' E 013°28'0 0.0
2015-May-01 08:31N 38°07' E 013°28'0 0.1
2015-May-01 07:31N 38°07' E 013°29'0 0.1
2015-May-01 06:28N 38°07' E 013°29'2 1.7
2015-May-01 05:33N 38°08' E 013°30'9 9.4
2015-May-01 04:33N 38°10' E 013°41'1210.8
2015-May-01 03:27N 38°12' E 013°56'  
2015-Apr-27 09:21N 38°10' E 015°36'9 9.0
2015-Apr-27 08:19N 38°20' E 015°37'1013.3
2015-Apr-27 07:33N 38°19' E 015°24'1413.5
2015-Apr-27 06:32N 38°17' E 015°07'1313.2
2015-Apr-27 05:33N 38°16' E 014°50'1513.3
2015-Apr-27 04:27N 38°14' E 014°32'1213.1
2015-Apr-27 03:33N 38°13' E 014°17'1312.8
2015-Apr-27 02:33N 38°12' E 014°00'1312.7
2015-Apr-27 01:33N 38°11' E 013°44'1313.0
2015-Apr-27 00:33N 38°08' E 013°28'3 2.5
2015-Apr-26 23:33N 38°06' E 013°26'0 0.0
2015-Apr-26 22:34N 38°06' E 013°26'0 0.0
2015-Apr-26 21:33N 38°06' E 013°26'0 0.0
2015-Apr-26 20:33N 38°06' E 013°26'0 0.0
2015-Apr-26 19:33N 38°06' E 013°26'0 0.0
2015-Apr-26 18:33N 38°06' E 013°26'0 0.0
2015-Apr-26 17:33N 38°06' E 013°26'0 0.0
2015-Apr-26 16:33N 38°06' E 013°26'0 0.0
2015-Apr-26 15:33N 38°06' E 013°26'0 0.0
2015-Apr-26 14:34N 38°06' E 013°26'0 0.0
2015-Apr-26 13:33N 38°06' E 013°26'0 0.0
2015-Apr-26 12:34N 38°06' E 013°26'0 0.0
2015-Apr-26 11:34N 38°06' E 013°26'0 0.0
2015-Apr-26 10:33N 38°06' E 013°26'0 0.0
2015-Apr-26 09:33N 38°06' E 013°26'0 0.0
2015-Apr-26 08:33N 38°06' E 013°26'0 0.0
2015-Apr-26 07:33N 38°06' E 013°26'1 1.1
2015-Apr-26 06:33N 38°07' E 013°26'0 0.1
2015-Apr-26 05:33N 38°07' E 013°26'0 0.0
2015-Apr-26 04:33N 38°07' E 013°26'0 0.0
2015-Apr-26 03:32N 38°07' E 013°26'0 0.0
2015-Apr-26 02:32N 38°07' E 013°26'0 0.0
2015-Apr-26 01:32N 38°07' E 013°26'0 0.0
2015-Apr-26 00:32N 38°07' E 013°26'0 0.0
2015-Apr-25 23:32N 38°07' E 013°26'0 0.0
2015-Apr-25 22:32N 38°07' E 013°26'0 0.0
2015-Apr-25 21:32N 38°07' E 013°26'0 0.0
2015-Apr-25 20:32N 38°07' E 013°26'0 0.0
2015-Apr-25 19:32N 38°07' E 013°26'0 0.0
2015-Apr-25 18:32N 38°07' E 013°26'0 0.0
2015-Apr-25 17:32N 38°07' E 013°26'0 0.0
2015-Apr-25 16:32N 38°07' E 013°26'  

Dump ship's entire track history